createdAt,value
2022-12-11T00:02:13.082Z,40.17
2022-12-11T00:04:40.184Z,39.84
2022-12-11T00:07:07.388Z,40.55
2022-12-11T00:09:34.564Z,40.10
2022-12-11T00:12:02.830Z,40.21
2022-12-11T00:14:30.167Z,40.64
2022-12-11T00:16:58.767Z,40.24
2022-12-11T00:19:25.962Z,40.14
2022-12-11T00:21:53.285Z,39.50
2022-12-11T00:24:20.463Z,41.50
2022-12-11T00:26:47.525Z,40.33
2022-12-11T00:29:14.765Z,40.88
2022-12-11T00:31:42.738Z,40.49
2022-12-11T00:34:11.524Z,40.47
2022-12-11T00:36:39.625Z,40.75
2022-12-11T00:39:07.647Z,40.12
2022-12-11T00:41:34.884Z,40.71
2022-12-11T00:44:02.606Z,40.34
2022-12-11T00:46:29.845Z,40.85
2022-12-11T00:48:57.125Z,40.25
2022-12-11T00:51:25.784Z,39.50
2022-12-11T00:53:52.871Z,39.73
2022-12-11T00:56:22.725Z,39.54
2022-12-11T00:58:50.824Z,40.22
2022-12-11T01:01:20.789Z,39.39
2022-12-11T01:03:48.309Z,40.88
2022-12-11T01:06:17.984Z,40.05
2022-12-11T01:08:47.843Z,39.56
2022-12-11T01:11:17.024Z,39.41
2022-12-11T01:13:44.287Z,39.82
2022-12-11T01:16:14.039Z,40.16
2022-12-11T01:18:42.407Z,39.78
2022-12-11T01:21:12.035Z,39.82
2022-12-11T01:23:39.846Z,39.42
2022-12-11T01:26:10.745Z,39.59
2022-12-11T01:28:37.925Z,40.22
2022-12-11T01:31:08.922Z,40.02
2022-12-11T01:33:36.105Z,39.63
2022-12-11T01:36:08.085Z,39.96
2022-12-11T01:38:35.226Z,39.44
2022-12-11T01:41:02.444Z,40.38
2022-12-11T01:43:31.325Z,40.09
2022-12-11T01:45:58.746Z,40.64
2022-12-11T01:48:29.904Z,40.18
2022-12-11T01:51:00.045Z,40.78
2022-12-11T01:53:32.446Z,40.03
2022-12-11T01:56:01.005Z,39.66
2022-12-11T01:58:35.805Z,40.15
2022-12-11T02:01:03.320Z,39.42
2022-12-11T02:03:30.624Z,40.02
2022-12-11T02:05:59.724Z,40.96
2022-12-11T02:08:27.157Z,39.97
2022-12-11T02:11:06.532Z,40.10
2022-12-11T02:13:44.708Z,40.21
2022-12-11T02:16:21.510Z,40.90
2022-12-11T02:19:00.709Z,39.85
2022-12-11T02:21:37.512Z,43.31
2022-12-11T02:24:31.669Z,45.02
2022-12-11T02:27:32.149Z,40.76
2022-12-11T02:30:06.271Z,42.68
2022-12-11T02:32:41.028Z,44.21
2022-12-11T02:35:14.270Z,46.05
2022-12-11T02:37:47.169Z,46.45
2022-12-11T02:40:21.668Z,45.77
2022-12-11T02:42:51.349Z,46.15
2022-12-11T02:45:24.431Z,41.61
2022-12-11T02:47:53.268Z,45.94
2022-12-11T02:50:23.210Z,45.14
2022-12-11T02:52:55.611Z,39.52
2022-12-11T02:55:26.493Z,42.11
2022-12-11T02:58:02.513Z,41.93
2022-12-11T03:00:31.668Z,41.58
2022-12-11T03:02:59.112Z,41.64
2022-12-11T03:05:26.710Z,43.00
2022-12-11T03:07:54.223Z,39.56
2022-12-11T03:10:21.470Z,40.08
2022-12-11T03:12:54.115Z,41.20
2022-12-11T03:15:31.889Z,40.81
2022-12-11T03:18:09.170Z,44.54
2022-12-11T03:20:42.854Z,43.16
2022-12-11T03:23:18.989Z,40.07
2022-12-11T03:25:54.419Z,41.29
2022-12-11T03:28:29.657Z,38.13
2022-12-11T03:30:58.561Z,42.68
2022-12-11T03:33:34.969Z,38.98
2022-12-11T03:36:08.771Z,39.70
2022-12-11T03:38:41.851Z,38.52
2022-12-11T03:41:12.070Z,40.77
2022-12-11T03:43:41.689Z,41.18
2022-12-11T03:46:12.747Z,39.22
2022-12-11T03:48:46.509Z,39.83
2022-12-11T03:51:17.214Z,38.20
2022-12-11T03:53:47.769Z,38.67
2022-12-11T03:56:18.410Z,40.04
2022-12-11T03:58:45.490Z,37.89
2022-12-11T04:01:12.669Z,41.78
2022-12-11T04:03:41.209Z,41.92
2022-12-11T04:06:08.451Z,38.30
2022-12-11T04:08:35.568Z,42.05
2022-12-11T04:11:04.969Z,41.91
2022-12-11T04:13:32.169Z,41.22
2022-12-11T04:15:59.257Z,41.67
2022-12-11T04:18:26.391Z,41.57
2022-12-11T04:20:55.750Z,40.78
2022-12-11T04:23:22.891Z,40.85
2022-12-11T04:25:50.491Z,38.29
2022-12-11T04:28:17.568Z,40.51
2022-12-11T04:30:49.047Z,38.16
2022-12-11T04:33:16.310Z,42.35
2022-12-11T04:35:43.528Z,37.66
2022-12-11T04:38:12.028Z,38.92
2022-12-11T04:40:39.175Z,41.13
2022-12-11T04:43:06.316Z,38.84
2022-12-11T04:45:34.090Z,39.93
2022-12-11T04:48:01.232Z,38.85
2022-12-11T04:50:28.629Z,39.01
2022-12-11T04:52:56.887Z,40.72
2022-12-11T04:55:25.588Z,38.40
2022-12-11T04:57:52.748Z,38.73
2022-12-11T05:00:19.991Z,38.23
2022-12-11T05:02:47.146Z,37.66
2022-12-11T05:05:14.422Z,38.28
2022-12-11T05:07:41.970Z,39.53
2022-12-11T05:10:09.929Z,39.63
2022-12-11T05:12:38.821Z,38.20
2022-12-11T05:15:07.109Z,38.11
2022-12-11T05:17:34.348Z,41.02
2022-12-11T05:20:01.469Z,38.97
2022-12-11T05:22:31.188Z,38.74
2022-12-11T05:24:58.468Z,40.38
2022-12-11T05:27:25.748Z,39.95
2022-12-11T05:29:59.216Z,38.21
2022-12-11T05:32:27.467Z,39.80
2022-12-11T05:34:54.549Z,38.53
2022-12-11T05:37:21.749Z,39.63
2022-12-11T05:39:48.949Z,40.88
2022-12-11T05:42:16.147Z,38.93
2022-12-11T05:44:43.348Z,39.08
2022-12-11T05:47:11.960Z,38.14
2022-12-11T05:49:39.419Z,37.83
2022-12-11T05:52:06.520Z,38.17
2022-12-11T05:54:33.597Z,40.01
2022-12-11T05:57:00.718Z,39.15
2022-12-11T05:59:27.779Z,39.64
2022-12-11T06:01:54.895Z,38.27
2022-12-11T06:04:23.678Z,39.25
2022-12-11T06:06:50.808Z,40.47
2022-12-11T06:09:18.078Z,38.11
2022-12-11T06:11:45.119Z,39.36
2022-12-11T06:14:12.637Z,38.79
2022-12-11T06:16:39.912Z,40.14
2022-12-11T06:19:07.221Z,41.66
2022-12-11T06:21:35.779Z,38.53
2022-12-11T06:24:04.599Z,38.39
2022-12-11T06:26:32.561Z,38.13
2022-12-11T06:28:59.760Z,37.78
2022-12-11T06:31:26.901Z,38.73
2022-12-11T06:33:54.347Z,38.37
2022-12-11T06:36:23.966Z,37.93
2022-12-11T06:38:54.799Z,37.76
2022-12-11T06:41:21.884Z,38.38
2022-12-11T06:43:49.138Z,38.40
2022-12-11T06:46:19.087Z,39.85
2022-12-11T06:48:47.738Z,37.39
2022-12-11T06:51:16.859Z,40.92
2022-12-11T06:53:44.281Z,38.40
2022-12-11T06:56:15.001Z,37.59
2022-12-11T06:58:43.717Z,38.20
2022-12-11T07:01:20.128Z,37.55
2022-12-11T07:03:47.621Z,37.19
2022-12-11T07:06:15.546Z,37.59
2022-12-11T07:08:43.267Z,40.77
2022-12-11T07:11:14.851Z,40.86
2022-12-11T07:13:42.471Z,37.23
2022-12-11T07:16:11.444Z,37.81
2022-12-11T07:18:39.809Z,37.03
2022-12-11T07:21:08.529Z,37.61
2022-12-11T07:23:35.950Z,37.56
2022-12-11T07:26:05.348Z,39.62
2022-12-11T07:28:35.027Z,38.61
2022-12-11T07:31:06.150Z,39.16
2022-12-11T07:33:33.449Z,37.17
2022-12-11T07:36:02.327Z,37.17
2022-12-11T07:38:29.529Z,37.68
2022-12-11T07:40:56.728Z,40.52
2022-12-11T07:43:23.930Z,38.34
2022-12-11T07:45:52.648Z,37.39
2022-12-11T07:48:19.928Z,37.14
2022-12-11T07:50:47.111Z,36.45
2022-12-11T07:53:14.410Z,33.99
2022-12-11T07:55:41.637Z,32.81
2022-12-11T07:58:08.730Z,31.61
2022-12-11T08:00:35.991Z,31.76
2022-12-11T08:03:04.736Z,32.96
2022-12-11T08:05:31.837Z,31.30
2022-12-11T08:07:59.016Z,31.06
2022-12-11T08:10:26.340Z,31.53
2022-12-11T08:12:53.538Z,32.03
2022-12-11T08:15:20.649Z,30.88
2022-12-11T08:17:47.687Z,29.88
2022-12-11T08:20:16.460Z,29.42
2022-12-11T08:22:43.757Z,28.75
2022-12-11T08:25:11.086Z,30.72
2022-12-11T08:27:38.337Z,28.69
2022-12-11T08:30:06.935Z,30.41
2022-12-11T08:32:35.041Z,29.13
2022-12-11T08:35:02.335Z,30.25
2022-12-11T08:37:30.896Z,31.89
2022-12-11T08:39:58.044Z,29.10
2022-12-11T08:42:25.165Z,28.33
2022-12-11T08:44:52.288Z,29.42
2022-12-11T08:47:19.446Z,31.04
2022-12-11T08:49:46.643Z,30.38
2022-12-11T08:52:13.743Z,31.21
2022-12-11T08:54:42.504Z,29.35
2022-12-11T08:57:09.584Z,30.06
2022-12-11T08:59:36.703Z,29.46
2022-12-11T09:02:03.765Z,27.54
2022-12-11T09:04:30.904Z,29.01
2022-12-11T09:06:58.084Z,27.25
2022-12-11T09:09:25.133Z,27.50
2022-12-11T09:11:53.704Z,26.74
2022-12-11T09:14:20.943Z,27.35
2022-12-11T09:16:48.303Z,28.21
2022-12-11T09:19:15.784Z,27.07
2022-12-11T09:21:45.043Z,25.91
2022-12-11T09:24:13.426Z,25.57
2022-12-11T09:26:41.905Z,27.09
2022-12-11T09:29:12.063Z,26.94
2022-12-11T09:31:39.227Z,28.26
2022-12-11T09:34:11.244Z,26.69
2022-12-11T09:36:39.885Z,27.39
2022-12-11T09:39:08.703Z,26.98
2022-12-11T09:41:39.623Z,26.44
2022-12-11T09:44:33.584Z,26.70
2022-12-11T09:47:01.383Z,25.76
2022-12-11T09:49:37.826Z,26.38
2022-12-11T09:52:15.566Z,28.72
2022-12-11T09:54:50.529Z,27.32
2022-12-11T09:57:32.045Z,27.63
2022-12-11T10:00:14.224Z,26.12
2022-12-11T10:03:06.025Z,27.67
2022-12-11T10:05:43.104Z,27.98
2022-12-11T10:08:22.927Z,27.22
2022-12-11T10:10:59.524Z,26.13
2022-12-11T10:13:37.204Z,27.00
2022-12-11T10:16:19.140Z,28.29
2022-12-11T10:18:47.924Z,28.08
2022-12-11T10:21:18.244Z,27.64
2022-12-11T10:23:54.304Z,26.11
2022-12-11T10:26:23.088Z,27.02
2022-12-11T10:28:51.091Z,26.87
2022-12-11T10:31:28.216Z,26.88
2022-12-11T10:34:01.346Z,27.34
2022-12-11T10:36:32.381Z,26.37
2022-12-11T10:38:59.700Z,25.87
2022-12-11T10:41:37.713Z,26.85
2022-12-11T10:44:17.049Z,27.89
2022-12-11T10:46:46.439Z,25.68
2022-12-11T10:49:25.885Z,27.71
2022-12-11T10:51:56.079Z,27.19
2022-12-11T10:54:33.262Z,26.99
2022-12-11T10:57:03.562Z,25.04
2022-12-11T10:59:37.602Z,28.05
2022-12-11T11:02:18.363Z,25.63
2022-12-11T11:04:46.380Z,26.26
2022-12-11T11:07:16.081Z,26.34
2022-12-11T11:09:43.369Z,26.40
2022-12-11T11:12:23.690Z,25.88
2022-12-11T11:15:01.451Z,25.98
2022-12-11T11:17:35.109Z,28.34
2022-12-11T11:20:14.805Z,25.15
2022-12-11T11:22:48.503Z,26.68
2022-12-11T11:25:21.445Z,27.82
2022-12-11T11:27:52.867Z,29.04
2022-12-11T11:30:23.852Z,26.35
2022-12-11T11:32:55.870Z,27.39
2022-12-11T11:35:26.197Z,28.15
2022-12-11T11:38:05.902Z,26.66
2022-12-11T11:40:41.322Z,27.19
2022-12-11T11:43:19.203Z,26.73
2022-12-11T11:45:55.702Z,26.61
2022-12-11T11:48:36.542Z,26.27
2022-12-11T11:51:14.863Z,30.08
2022-12-11T11:53:49.783Z,27.90
2022-12-11T11:56:25.762Z,26.07
2022-12-11T11:59:01.907Z,25.93
2022-12-11T12:01:29.746Z,25.92
2022-12-11T12:04:01.423Z,26.43
2022-12-11T12:06:55.446Z,26.00
2022-12-11T12:09:38.977Z,27.07
2022-12-11T12:12:24.722Z,27.29
2022-12-11T12:15:07.663Z,29.10
2022-12-11T12:17:53.624Z,30.12
2022-12-11T12:20:36.079Z,27.93
2022-12-11T12:23:34.896Z,28.09
2022-12-11T12:26:12.338Z,28.29
2022-12-11T12:28:49.558Z,29.02
2022-12-11T12:31:36.197Z,27.19
2022-12-11T12:34:12.837Z,27.47
2022-12-11T12:36:52.699Z,28.79
2022-12-11T12:39:34.156Z,28.94
2022-12-11T12:42:13.697Z,28.12
2022-12-11T12:44:52.157Z,27.93
2022-12-11T12:47:21.077Z,27.81
2022-12-11T12:49:51.176Z,28.46
2022-12-11T12:52:28.138Z,28.52
2022-12-11T12:55:00.517Z,27.99
2022-12-11T12:57:27.962Z,28.74
2022-12-11T12:59:55.036Z,28.45
2022-12-11T13:02:23.028Z,29.39
2022-12-11T13:04:59.257Z,29.46
2022-12-11T13:07:31.858Z,29.74
2022-12-11T13:10:03.239Z,29.66
2022-12-11T13:12:42.681Z,30.09
2022-12-11T13:15:36.225Z,30.70
2022-12-11T13:18:25.649Z,30.74
2022-12-11T13:20:53.077Z,30.86
2022-12-11T13:23:29.121Z,31.22
2022-12-11T13:25:58.378Z,32.15
2022-12-11T13:28:45.817Z,31.54
2022-12-11T13:31:35.472Z,31.45
2022-12-11T13:34:17.897Z,31.33
2022-12-11T13:36:50.678Z,32.77
2022-12-11T13:39:24.141Z,31.21
2022-12-11T13:41:55.457Z,31.86
2022-12-11T13:44:26.857Z,31.73
2022-12-11T13:46:58.391Z,30.87
2022-12-11T13:49:33.451Z,30.85
2022-12-11T13:52:01.968Z,30.93
2022-12-11T13:54:32.150Z,31.55
2022-12-11T13:57:02.965Z,31.40
2022-12-11T13:59:33.406Z,31.71
2022-12-11T14:02:10.630Z,31.30
2022-12-11T14:04:38.547Z,32.09
2022-12-11T14:07:09.127Z,31.55
2022-12-11T14:09:43.535Z,31.88
2022-12-11T14:12:18.669Z,31.63
2022-12-11T14:14:50.706Z,32.24
2022-12-11T14:17:27.489Z,32.63
2022-12-11T14:19:59.285Z,33.36
2022-12-11T14:22:29.385Z,33.18
2022-12-11T14:25:00.425Z,33.18
2022-12-11T14:27:28.588Z,32.95
2022-12-11T14:29:56.062Z,32.95
2022-12-11T14:32:31.446Z,33.85
2022-12-11T14:35:02.196Z,33.15
2022-12-11T14:37:29.708Z,33.72
2022-12-11T14:40:06.192Z,33.58
2022-12-11T14:42:40.586Z,33.42
2022-12-11T14:45:19.971Z,32.86
2022-12-11T14:47:47.566Z,33.46
2022-12-11T14:50:20.687Z,33.23
2022-12-11T14:52:53.828Z,32.70
2022-12-11T14:55:27.370Z,32.94
2022-12-11T14:57:59.316Z,32.62
2022-12-11T15:00:29.668Z,33.28
2022-12-11T15:03:00.373Z,32.67
2022-12-11T15:05:28.668Z,33.43
2022-12-11T15:08:01.459Z,33.16
2022-12-11T15:10:39.908Z,32.74
2022-12-11T15:13:09.586Z,33.09
2022-12-11T15:15:45.887Z,33.01
2022-12-11T15:18:21.219Z,33.09
2022-12-11T15:20:53.652Z,33.39
2022-12-11T15:23:21.169Z,32.92
2022-12-11T15:25:55.307Z,33.52
2022-12-11T15:28:32.299Z,33.48
2022-12-11T15:31:02.083Z,33.79
2022-12-11T15:33:34.338Z,33.54
2022-12-11T15:36:05.378Z,33.17
2022-12-11T15:38:36.188Z,33.78
2022-12-11T15:41:06.327Z,33.87
2022-12-11T15:43:37.739Z,33.92
2022-12-11T15:46:06.384Z,33.63
2022-12-11T15:48:34.026Z,33.87
2022-12-11T15:51:01.306Z,34.07
2022-12-11T15:53:28.366Z,33.60
2022-12-11T15:55:57.608Z,34.32
2022-12-11T15:58:27.728Z,33.98
2022-12-11T16:00:55.953Z,34.95
2022-12-11T16:03:23.608Z,34.04
2022-12-11T16:05:52.407Z,34.17
2022-12-11T16:08:22.275Z,34.76
2022-12-11T16:10:51.510Z,34.42
2022-12-11T16:13:18.666Z,34.16
2022-12-11T16:15:49.790Z,33.82
2022-12-11T16:18:19.567Z,34.71
2022-12-11T16:20:48.999Z,33.97
2022-12-11T16:23:17.108Z,33.83
2022-12-11T16:25:46.559Z,34.37
2022-12-11T16:28:17.109Z,34.79
2022-12-11T16:30:46.040Z,35.03
2022-12-11T16:33:14.807Z,34.76
2022-12-11T16:35:42.709Z,34.95
2022-12-11T16:38:10.811Z,34.68
2022-12-11T16:40:38.767Z,34.13
2022-12-11T16:43:06.648Z,34.46
2022-12-11T16:45:34.008Z,34.31
2022-12-11T16:48:05.498Z,34.20
2022-12-11T16:50:33.239Z,34.33
2022-12-11T16:53:00.892Z,34.02
2022-12-11T16:55:28.046Z,33.74
2022-12-11T16:57:55.203Z,33.84
2022-12-11T17:00:22.486Z,34.39
2022-12-11T17:02:49.709Z,33.86
2022-12-11T17:05:18.387Z,34.17
2022-12-11T17:07:45.639Z,34.72
2022-12-11T17:10:13.107Z,34.30
2022-12-11T17:12:40.328Z,34.63
2022-12-11T17:15:08.231Z,35.10
2022-12-11T17:17:35.469Z,34.62
2022-12-11T17:20:02.688Z,34.67
2022-12-11T17:22:31.285Z,34.82
2022-12-11T17:24:58.406Z,34.98
2022-12-11T17:27:25.530Z,35.07
2022-12-11T17:29:52.650Z,34.98
2022-12-11T17:32:19.881Z,34.98
2022-12-11T17:34:47.446Z,35.42
2022-12-11T17:37:14.866Z,35.07
2022-12-11T17:39:44.066Z,34.81
2022-12-11T17:42:11.129Z,34.72
2022-12-11T17:44:38.429Z,35.03
2022-12-11T17:47:10.872Z,34.95
2022-12-11T17:49:38.559Z,35.04
2022-12-11T17:52:05.946Z,34.39
2022-12-11T17:54:32.986Z,34.14
2022-12-11T17:57:01.586Z,34.42
2022-12-11T17:59:28.710Z,33.98
2022-12-11T18:01:55.897Z,33.98
2022-12-11T18:04:23.087Z,34.31
2022-12-11T18:06:50.966Z,33.68
2022-12-11T18:09:18.087Z,33.90
2022-12-11T18:11:45.566Z,34.03
2022-12-11T18:14:17.407Z,33.79
2022-12-11T18:16:45.167Z,33.92
2022-12-11T18:19:12.908Z,33.60
2022-12-11T18:21:45.526Z,34.25
2022-12-11T18:24:12.667Z,33.70
2022-12-11T18:26:39.946Z,33.58
2022-12-11T18:29:07.067Z,32.95
2022-12-11T18:31:40.657Z,33.46
2022-12-11T18:34:10.870Z,33.44
2022-12-11T18:36:38.511Z,33.56
2022-12-11T18:39:05.708Z,33.46
2022-12-11T18:41:32.931Z,33.62
2022-12-11T18:44:05.169Z,33.76
2022-12-11T18:46:37.118Z,34.55
2022-12-11T18:49:04.306Z,34.45
2022-12-11T18:51:31.795Z,34.46
2022-12-11T18:53:58.971Z,34.45
2022-12-11T18:56:26.306Z,34.68
2022-12-11T18:58:53.446Z,34.81
2022-12-11T19:01:23.855Z,35.04
2022-12-11T19:03:56.326Z,35.23
2022-12-11T19:06:29.247Z,35.43
2022-12-11T19:08:56.818Z,35.03
2022-12-11T19:11:26.407Z,35.37
2022-12-11T19:13:55.229Z,35.69
2022-12-11T19:16:26.818Z,35.45
2022-12-11T19:18:56.106Z,35.82
2022-12-11T19:21:23.305Z,35.39
2022-12-11T19:23:50.839Z,36.12
2022-12-11T19:26:20.953Z,35.29
2022-12-11T19:28:52.067Z,36.02
2022-12-11T19:31:22.612Z,35.96
2022-12-11T19:33:50.566Z,35.44
2022-12-11T19:36:21.727Z,35.38
2022-12-11T19:38:49.266Z,35.25
2022-12-11T19:41:19.006Z,35.81
2022-12-11T19:43:46.606Z,35.58
2022-12-11T19:46:14.511Z,35.61
2022-12-11T19:48:42.727Z,36.04
2022-12-11T19:51:12.746Z,36.07
2022-12-11T19:53:42.827Z,36.16
2022-12-11T19:56:11.585Z,35.67
2022-12-11T19:58:39.265Z,35.82
2022-12-11T20:01:07.594Z,35.90
2022-12-11T20:03:35.366Z,35.97
2022-12-11T20:06:06.030Z,35.72
2022-12-11T20:08:49.734Z,36.28
2022-12-11T20:11:19.259Z,36.01
2022-12-11T20:13:47.651Z,35.72
2022-12-11T20:16:16.874Z,36.32
2022-12-11T20:18:45.713Z,36.23
2022-12-11T20:21:14.892Z,36.19
2022-12-11T20:23:42.706Z,35.76
2022-12-11T20:26:12.809Z,36.00
2022-12-11T20:28:41.566Z,36.02
2022-12-11T20:31:14.988Z,35.82
2022-12-11T20:33:47.849Z,36.39
2022-12-11T20:36:17.645Z,35.91
2022-12-11T20:38:44.859Z,37.29
2022-12-11T20:41:14.510Z,36.74
2022-12-11T20:43:43.871Z,36.72
2022-12-11T20:46:14.644Z,36.58
2022-12-11T20:48:44.370Z,36.39
2022-12-11T20:51:14.708Z,36.33
2022-12-11T20:53:43.368Z,36.21
2022-12-11T20:56:12.810Z,36.28
2022-12-11T20:58:40.391Z,36.33
2022-12-11T21:01:13.913Z,36.28
2022-12-11T21:03:42.256Z,36.96
2022-12-11T21:06:09.927Z,36.61
2022-12-11T21:08:37.066Z,36.43
2022-12-11T21:11:06.307Z,36.70
2022-12-11T21:13:33.608Z,36.42
2022-12-11T21:16:05.556Z,36.52
2022-12-11T21:18:34.447Z,36.79
2022-12-11T21:21:01.691Z,36.82
2022-12-11T21:23:28.910Z,36.90
2022-12-11T21:25:56.268Z,36.80
2022-12-11T21:28:23.428Z,37.28
2022-12-11T21:30:51.388Z,36.78
2022-12-11T21:33:18.509Z,36.55
2022-12-11T21:35:54.287Z,36.66
2022-12-11T21:38:21.387Z,36.47
2022-12-11T21:40:49.431Z,37.10
2022-12-11T21:43:16.747Z,36.74
2022-12-11T21:46:01.458Z,36.51
2022-12-11T21:48:29.310Z,36.65
2022-12-11T21:51:05.394Z,36.38
2022-12-11T21:53:33.681Z,37.24
2022-12-11T21:56:04.031Z,36.84
2022-12-11T21:58:33.631Z,36.71
2022-12-11T22:01:00.805Z,36.99
2022-12-11T22:03:28.010Z,37.04
2022-12-11T22:05:55.470Z,37.22
2022-12-11T22:08:24.094Z,37.42
2022-12-11T22:10:51.289Z,37.40
2022-12-11T22:13:18.471Z,37.36
2022-12-11T22:15:45.878Z,36.91
2022-12-11T22:18:13.050Z,36.83
2022-12-11T22:20:40.410Z,37.01
2022-12-11T22:23:07.530Z,36.78
2022-12-11T22:25:36.210Z,37.08
2022-12-11T22:28:04.210Z,36.77
2022-12-11T22:30:31.862Z,36.77
2022-12-11T22:32:58.972Z,36.81
2022-12-11T22:35:27.558Z,37.24
2022-12-11T22:37:54.950Z,36.86
2022-12-11T22:40:23.170Z,36.82
2022-12-11T22:42:51.668Z,36.44
2022-12-11T22:45:19.170Z,37.10
2022-12-11T22:47:46.368Z,36.68
2022-12-11T22:50:14.810Z,37.16
2022-12-11T22:52:42.869Z,36.80
2022-12-11T22:55:10.323Z,36.92
2022-12-11T22:57:39.249Z,36.54
2022-12-11T23:00:13.201Z,36.64
2022-12-11T23:02:40.911Z,36.88
2022-12-11T23:05:11.776Z,37.07
2022-12-11T23:07:40.019Z,36.86
2022-12-11T23:10:10.211Z,36.49
2022-12-11T23:12:37.668Z,36.70
2022-12-11T23:15:07.879Z,37.07
2022-12-11T23:17:35.090Z,37.33
2022-12-11T23:20:02.330Z,37.27
2022-12-11T23:22:30.228Z,37.00
2022-12-11T23:24:57.773Z,36.62
2022-12-11T23:27:25.089Z,36.76
2022-12-11T23:29:52.234Z,36.88
2022-12-11T23:32:20.889Z,36.96
2022-12-11T23:34:48.149Z,36.82
2022-12-11T23:37:15.305Z,36.41
2022-12-11T23:39:42.709Z,36.74
2022-12-11T23:42:09.830Z,37.10
2022-12-11T23:44:37.451Z,36.52
2022-12-11T23:47:04.729Z,37.25
2022-12-11T23:49:33.452Z,36.27
2022-12-11T23:52:00.750Z,36.59
2022-12-11T23:54:27.974Z,36.72
2022-12-11T23:56:55.388Z,36.28
2022-12-11T23:59:22.593Z,36.39
